createdAt,value
2018-06-19T00:01:16.727Z,56.40
2018-06-19T00:03:44.794Z,56.60
2018-06-19T00:06:13.015Z,56.80
2018-06-19T00:08:41.119Z,56.80
2018-06-19T00:11:10.066Z,56.80
2018-06-19T00:13:38.145Z,57.50
2018-06-19T00:16:06.233Z,57.00
2018-06-19T00:18:37.862Z,57.10
2018-06-19T00:21:10.259Z,57.20
2018-06-19T00:23:38.357Z,57.10
2018-06-19T00:26:06.483Z,57.80
2018-06-19T00:28:37.467Z,57.30
2018-06-19T00:31:05.594Z,57.20
2018-06-19T00:33:33.685Z,57.30
2018-06-19T00:36:01.764Z,57.30
2018-06-19T00:38:29.882Z,57.40
2018-06-19T00:40:57.967Z,57.50
2018-06-19T00:43:26.256Z,57.50
2018-06-19T00:45:54.437Z,57.60
2018-06-19T00:50:50.518Z,57.80
2018-06-19T00:53:18.582Z,58.00
2018-06-19T00:55:46.760Z,58.20
2018-06-19T00:58:14.923Z,58.40
2018-06-19T01:00:42.988Z,58.60
2018-06-19T01:03:11.083Z,58.60
2018-06-19T01:05:39.153Z,58.70
2018-06-19T01:08:07.269Z,58.90
2018-06-19T01:10:35.343Z,59.00
2018-06-19T01:13:03.439Z,59.20
2018-06-19T01:15:31.580Z,59.20
2018-06-19T01:17:59.698Z,59.40
2018-06-19T01:20:27.803Z,59.40
2018-06-19T01:22:55.875Z,59.50
2018-06-19T01:25:23.966Z,59.70
2018-06-19T01:27:52.095Z,59.80
2018-06-19T01:30:20.176Z,60.00
2018-06-19T01:32:48.366Z,60.10
2018-06-19T01:35:16.451Z,60.40
2018-06-19T01:37:44.619Z,60.70
2018-06-19T01:40:12.792Z,61.10
2018-06-19T01:42:40.925Z,61.20
2018-06-19T01:45:09.002Z,61.40
2018-06-19T01:47:37.102Z,61.70
2018-06-19T01:50:05.279Z,61.90
2018-06-19T01:52:33.382Z,62.20
2018-06-19T01:55:01.490Z,62.30
2018-06-19T01:57:29.611Z,62.40
2018-06-19T01:59:57.672Z,62.80
2018-06-19T02:02:25.745Z,63.20
2018-06-19T02:04:53.810Z,63.50
2018-06-19T02:07:21.886Z,63.70
2018-06-19T02:09:49.971Z,64.00
2018-06-19T02:12:18.095Z,64.20
2018-06-19T02:14:46.189Z,64.50
2018-06-19T02:17:14.268Z,64.60
2018-06-19T02:19:42.336Z,65.00
2018-06-19T02:22:10.411Z,65.30
2018-06-19T02:24:38.486Z,65.40
2018-06-19T02:27:06.562Z,65.40
2018-06-19T02:29:34.710Z,65.60
2018-06-19T02:32:02.784Z,66.00
2018-06-19T02:34:30.873Z,66.70
2018-06-19T02:39:26.907Z,66.50
2018-06-19T02:41:54.993Z,67.50
2018-06-19T02:44:23.111Z,66.30
2018-06-19T02:46:51.234Z,67.00
2018-06-19T02:49:19.336Z,67.00
2018-06-19T02:51:47.395Z,67.30
2018-06-19T02:54:15.487Z,66.90
2018-06-19T02:56:43.733Z,67.10
2018-06-19T02:59:11.809Z,67.00
2018-06-19T03:01:40.107Z,67.00
2018-06-19T03:04:08.165Z,66.90
2018-06-19T03:06:36.276Z,66.80
2018-06-19T03:09:07.210Z,67.30
2018-06-19T03:11:35.340Z,67.40
2018-06-19T03:14:03.415Z,67.30
2018-06-19T03:16:31.492Z,67.50
2018-06-19T03:18:59.616Z,67.30
2018-06-19T03:21:27.696Z,67.10
2018-06-19T03:23:55.779Z,67.00
2018-06-19T03:26:23.894Z,66.80
2018-06-19T03:28:52.006Z,66.70
2018-06-19T03:31:20.068Z,66.80
2018-06-19T03:33:48.147Z,67.00
2018-06-19T03:36:16.217Z,68.40
2018-06-19T03:38:44.296Z,70.30
2018-06-19T03:41:12.374Z,72.20
2018-06-19T03:43:40.437Z,73.90
2018-06-19T03:46:08.563Z,75.80
2018-06-19T03:48:36.683Z,77.20
2018-06-19T03:51:04.747Z,78.50
2018-06-19T03:53:32.879Z,79.60
2018-06-19T03:56:00.955Z,79.90
2018-06-19T03:58:29.226Z,79.90
2018-06-19T04:00:57.271Z,80.90
2018-06-19T04:03:25.351Z,79.90
2018-06-19T04:05:53.447Z,80.20
2018-06-19T04:08:21.540Z,80.20
2018-06-19T04:10:49.675Z,79.80
2018-06-19T04:13:17.762Z,80.20
2018-06-19T04:15:45.839Z,79.60
2018-06-19T04:18:13.957Z,79.00
2018-06-19T04:20:42.029Z,78.70
2018-06-19T04:23:10.123Z,79.10
2018-06-19T04:25:38.174Z,79.20
2018-06-19T04:28:06.384Z,79.00
2018-06-19T04:30:34.642Z,78.50
2018-06-19T04:33:02.722Z,78.80
2018-06-19T04:35:30.815Z,78.70
2018-06-19T04:37:58.924Z,78.50
2018-06-19T04:40:27.052Z,78.00
2018-06-19T04:42:55.127Z,77.40
2018-06-19T04:45:23.313Z,77.30
2018-06-19T04:47:51.423Z,77.30
2018-06-19T04:50:19.516Z,76.80
2018-06-19T04:52:47.631Z,76.60
2018-06-19T04:55:15.721Z,76.60
2018-06-19T04:57:43.869Z,75.00
2018-06-19T05:00:12.044Z,74.90
2018-06-19T05:02:40.187Z,74.20
2018-06-19T05:05:08.327Z,73.30
2018-06-19T05:07:36.459Z,73.20
2018-06-19T05:10:04.599Z,73.00
2018-06-19T05:12:32.713Z,72.50
2018-06-19T05:15:00.801Z,72.80
2018-06-19T05:17:28.901Z,72.50
2018-06-19T05:19:56.971Z,72.20
2018-06-19T05:22:25.121Z,72.00
2018-06-19T05:24:53.264Z,71.60
2018-06-19T05:27:21.371Z,71.40
2018-06-19T05:29:49.464Z,71.40
2018-06-19T05:32:17.535Z,71.10
2018-06-19T05:34:45.622Z,71.10
2018-06-19T05:37:13.714Z,71.10
2018-06-19T05:39:41.827Z,70.80
2018-06-19T05:42:10.008Z,70.60
2018-06-19T05:44:38.178Z,70.00
2018-06-19T05:47:06.335Z,69.90
2018-06-19T05:49:34.441Z,69.90
2018-06-19T05:52:02.548Z,69.10
2018-06-19T05:54:30.652Z,69.10
2018-06-19T05:56:58.791Z,68.80
2018-06-19T06:01:54.968Z,69.10
2018-06-19T06:04:23.131Z,67.70
2018-06-19T06:06:51.250Z,67.90
2018-06-19T06:09:19.403Z,67.10
2018-06-19T06:11:47.745Z,66.50
2018-06-19T06:16:44.011Z,65.80
2018-06-19T06:19:11.998Z,65.50
2018-06-19T06:21:40.112Z,65.90
2018-06-19T06:24:08.162Z,65.30
2018-06-19T06:26:36.324Z,65.30
2018-06-19T06:29:04.699Z,64.90
2018-06-19T06:31:32.885Z,64.00
2018-06-19T06:34:00.974Z,63.40
2018-06-19T06:36:29.062Z,62.10
2018-06-19T06:38:57.149Z,61.90
2018-06-19T06:41:25.268Z,61.20
2018-06-19T06:43:53.377Z,60.80
2018-06-19T06:46:21.471Z,59.80
2018-06-19T06:48:49.577Z,58.70
2018-06-19T06:51:17.702Z,58.60
2018-06-19T06:53:45.827Z,59.10
2018-06-19T06:56:13.895Z,59.20
2018-06-19T07:01:10.005Z,58.20
2018-06-19T07:03:38.084Z,57.50
2018-06-19T07:06:06.173Z,57.80
2018-06-19T07:08:34.262Z,57.20
2018-06-19T07:11:02.355Z,56.90
2018-06-19T07:13:30.529Z,56.60
2018-06-19T07:15:58.595Z,56.80
2018-06-19T07:18:26.736Z,56.60
2018-06-19T07:20:54.802Z,56.20
2018-06-19T07:23:22.907Z,54.80
2018-06-19T07:25:51.056Z,55.70
2018-06-19T07:28:19.207Z,56.20
2018-06-19T07:30:47.391Z,56.10
2018-06-19T07:33:15.443Z,55.10
2018-06-19T07:35:43.550Z,55.00
2018-06-19T07:38:11.687Z,54.60
2018-06-19T07:40:39.727Z,53.90
2018-06-19T07:43:07.814Z,52.80
2018-06-19T07:45:35.893Z,51.60
2018-06-19T07:48:04.027Z,49.50
2018-06-19T07:50:32.448Z,49.00
2018-06-19T07:53:00.521Z,48.40
2018-06-19T07:55:28.681Z,46.70
2018-06-19T07:57:56.768Z,45.60
2018-06-19T08:00:24.872Z,45.80
2018-06-19T08:02:52.964Z,45.90
2018-06-19T08:05:21.101Z,45.50
2018-06-19T08:07:49.208Z,45.30
2018-06-19T08:10:17.302Z,45.10
2018-06-19T08:12:45.687Z,44.80
2018-06-19T08:15:13.751Z,44.30
2018-06-19T08:17:41.814Z,43.40
2018-06-19T08:20:10.255Z,43.60
2018-06-19T08:22:38.340Z,44.30
2018-06-19T08:25:06.515Z,45.10
2018-06-19T08:27:34.642Z,45.70
2018-06-19T08:30:02.935Z,46.20
2018-06-19T08:32:31.047Z,46.80
2018-06-19T08:34:59.212Z,47.80
2018-06-19T08:37:27.502Z,47.70
2018-06-19T08:39:55.633Z,47.70
2018-06-19T08:42:23.735Z,47.60
2018-06-19T08:44:58.748Z,47.50
2018-06-19T08:47:26.834Z,47.00
2018-06-19T08:49:54.914Z,47.50
2018-06-19T08:52:23.012Z,47.80
2018-06-19T08:54:51.100Z,47.90
2018-06-19T08:57:19.190Z,47.70
2018-06-19T08:59:47.351Z,47.40
2018-06-19T09:02:15.432Z,46.90
2018-06-19T09:04:43.513Z,47.00
2018-06-19T09:09:39.532Z,45.30
2018-06-19T09:12:07.600Z,45.60
2018-06-19T09:14:35.695Z,45.00
2018-06-19T09:19:31.678Z,44.30
2018-06-19T09:21:59.752Z,43.80
2018-06-19T09:24:27.971Z,43.80
2018-06-19T09:26:56.054Z,43.60
2018-06-19T09:29:24.164Z,43.30
2018-06-19T09:31:52.519Z,43.20
2018-06-19T09:34:20.606Z,42.30
2018-06-19T09:36:48.766Z,42.80
2018-06-19T09:39:16.854Z,41.70
2018-06-19T09:41:45.530Z,41.50
2018-06-19T09:44:13.706Z,42.00
2018-06-19T09:46:42.194Z,42.00
2018-06-19T09:49:10.279Z,41.70
2018-06-19T09:51:39.338Z,41.70
2018-06-19T09:54:07.455Z,41.60
2018-06-19T09:56:35.566Z,41.60
2018-06-19T09:59:03.887Z,41.60
2018-06-19T10:01:32.028Z,41.40
2018-06-19T10:04:00.129Z,41.10
2018-06-19T10:06:28.530Z,40.60
2018-06-19T10:08:56.656Z,40.60
2018-06-19T10:11:24.747Z,40.40
2018-06-19T10:13:52.874Z,40.40
2018-06-19T10:16:21.227Z,40.50
2018-06-19T10:18:49.344Z,39.10
2018-06-19T10:21:17.440Z,39.70
2018-06-19T10:23:45.664Z,39.50
2018-06-19T10:26:13.775Z,39.60
2018-06-19T10:28:41.924Z,40.30
2018-06-19T10:31:10.037Z,40.50
2018-06-19T10:33:38.119Z,40.90
2018-06-19T10:36:06.263Z,41.60
2018-06-19T10:38:34.383Z,41.10
2018-06-19T10:41:02.482Z,40.80
2018-06-19T10:43:30.562Z,40.20
2018-06-19T10:45:58.769Z,39.80
2018-06-19T10:48:26.820Z,40.00
2018-06-19T10:50:54.901Z,40.20
2018-06-19T10:53:23.011Z,40.00
2018-06-19T10:55:51.071Z,39.60
2018-06-19T10:58:19.409Z,39.90
2018-06-19T11:00:47.475Z,39.30
2018-06-19T11:03:15.558Z,39.30
2018-06-19T11:05:43.706Z,38.70
2018-06-19T11:08:11.955Z,38.50
2018-06-19T11:10:40.008Z,37.90
2018-06-19T11:13:08.161Z,38.30
2018-06-19T11:15:36.293Z,38.20
2018-06-19T11:18:04.630Z,38.30
2018-06-19T11:20:32.707Z,38.50
2018-06-19T11:23:00.821Z,38.20
2018-06-19T11:27:57.090Z,39.10
2018-06-19T11:32:53.095Z,39.50
2018-06-19T11:35:21.222Z,39.40
2018-06-19T11:37:49.350Z,39.70
2018-06-19T11:40:17.446Z,40.70
2018-06-19T11:42:45.902Z,40.30
2018-06-19T11:45:14.013Z,40.30
2018-06-19T11:47:42.148Z,39.90
2018-06-19T11:50:10.346Z,40.00
2018-06-19T11:55:06.658Z,41.40
2018-06-19T11:57:34.795Z,41.70
2018-06-19T12:00:03.034Z,42.00
2018-06-19T12:02:31.123Z,42.10
2018-06-19T12:04:59.184Z,41.60
2018-06-19T12:07:31.605Z,41.80
2018-06-19T12:09:59.707Z,41.00
2018-06-19T12:12:27.807Z,40.50
2018-06-19T12:14:55.915Z,40.20
2018-06-19T12:17:23.988Z,39.30
2018-06-19T12:19:52.071Z,39.30
2018-06-19T12:22:20.167Z,39.10
2018-06-19T12:24:48.231Z,39.20
2018-06-19T12:27:16.316Z,39.60
2018-06-19T12:29:44.492Z,40.00
2018-06-19T12:32:12.535Z,40.70
2018-06-19T12:34:40.601Z,40.20
2018-06-19T12:37:08.683Z,39.80
2018-06-19T12:39:36.763Z,39.90
2018-06-19T12:42:04.947Z,39.80
2018-06-19T12:44:33.066Z,40.50
2018-06-19T12:47:01.168Z,41.50
2018-06-19T12:49:40.958Z,41.50
2018-06-19T12:52:20.751Z,41.20
2018-06-19T12:55:58.807Z,41.20
2018-06-19T12:58:26.905Z,41.10
2018-06-19T13:00:55.016Z,41.70
2018-06-19T13:03:34.762Z,42.10
2018-06-19T13:06:14.395Z,42.40
2018-06-19T13:08:42.510Z,42.30
2018-06-19T13:11:10.757Z,42.50
2018-06-19T13:13:50.350Z,41.70
2018-06-19T13:16:30.018Z,41.70
2018-06-19T13:19:09.716Z,42.00
2018-06-19T13:21:37.821Z,42.20
2018-06-19T13:24:05.914Z,42.40
2018-06-19T13:26:34.056Z,41.70
2018-06-19T13:29:42.050Z,42.20
2018-06-19T13:34:39.228Z,42.20
2018-06-19T13:37:07.634Z,41.80
2018-06-19T13:39:36.456Z,42.20
2018-06-19T13:44:49.972Z,42.50
2018-06-19T13:47:18.351Z,42.80
2018-06-19T13:49:46.528Z,43.10
2018-06-19T13:52:14.662Z,43.70
2018-06-19T13:54:42.743Z,44.10
2018-06-19T13:57:37.996Z,44.00
2018-06-19T14:00:08.489Z,43.80
2018-06-19T14:02:36.591Z,43.40
2018-06-19T14:05:05.521Z,43.50
2018-06-19T14:07:39.114Z,43.20
2018-06-19T14:10:20.098Z,43.40
2018-06-19T14:12:51.644Z,43.70
2018-06-19T14:17:48.386Z,43.40
2018-06-19T14:20:16.507Z,43.70
2018-06-19T14:22:44.929Z,44.10
2018-06-19T14:25:13.134Z,44.30
2018-06-19T14:27:41.203Z,44.40
2018-06-19T14:30:09.330Z,44.10
2018-06-19T14:32:37.395Z,45.20
2018-06-19T14:35:05.563Z,45.50
2018-06-19T14:37:33.675Z,45.80
2018-06-19T14:40:01.784Z,45.90
2018-06-19T14:42:29.885Z,46.30
2018-06-19T14:44:57.999Z,46.90
2018-06-19T14:47:26.082Z,47.00
2018-06-19T14:49:54.164Z,47.00
2018-06-19T14:52:22.239Z,47.20
2018-06-19T14:54:50.305Z,47.20
2018-06-19T14:57:18.381Z,47.40
2018-06-19T14:59:46.453Z,47.40
2018-06-19T15:02:14.596Z,47.60
2018-06-19T15:04:42.773Z,47.70
2018-06-19T15:07:11.155Z,47.80
2018-06-19T15:09:39.330Z,47.60
2018-06-19T15:12:07.512Z,48.00
2018-06-19T15:14:35.588Z,48.20
2018-06-19T15:17:03.724Z,48.70
2018-06-19T15:19:31.836Z,48.70
2018-06-19T15:21:59.935Z,48.60
2018-06-19T15:24:28.003Z,48.60
2018-06-19T15:26:56.113Z,48.40
2018-06-19T15:29:24.219Z,48.40
2018-06-19T15:31:52.643Z,48.40
2018-06-19T15:34:20.762Z,48.60
2018-06-19T15:36:48.870Z,49.30
2018-06-19T15:39:16.939Z,48.70
2018-06-19T15:41:45.115Z,49.00
2018-06-19T15:44:13.270Z,49.50
2018-06-19T15:46:41.354Z,49.70
2018-06-19T15:49:09.445Z,50.20
2018-06-19T15:51:37.830Z,50.70
2018-06-19T15:54:05.960Z,50.90
2018-06-19T15:56:34.083Z,51.50
2018-06-19T16:01:30.290Z,51.30
2018-06-19T16:03:58.396Z,51.10
2018-06-19T16:06:26.528Z,50.80
2018-06-19T16:08:54.623Z,50.70
2018-06-19T16:11:22.754Z,50.40
2018-06-19T16:13:50.855Z,50.20
2018-06-19T16:16:18.939Z,50.00
2018-06-19T16:18:47.027Z,49.90
2018-06-19T16:21:15.151Z,49.70
2018-06-19T16:23:44.119Z,50.20
2018-06-19T16:26:12.243Z,49.40
2018-06-19T16:28:40.345Z,49.00
2018-06-19T16:31:08.427Z,49.30
2018-06-19T16:33:36.505Z,49.00
2018-06-19T16:36:04.654Z,48.80
2018-06-19T16:38:32.767Z,48.20
2018-06-19T16:41:00.841Z,47.80
2018-06-19T16:43:28.987Z,47.70
2018-06-19T16:45:57.098Z,47.40
2018-06-19T16:48:25.217Z,47.90
2018-06-19T16:50:53.311Z,47.70
2018-06-19T16:53:21.771Z,48.10
2018-06-19T16:55:49.895Z,48.30
2018-06-19T16:58:17.978Z,48.80
2018-06-19T17:00:46.095Z,48.90
2018-06-19T17:03:14.205Z,48.70
2018-06-19T17:05:42.402Z,48.80
2018-06-19T17:08:10.535Z,49.00
2018-06-19T17:10:38.651Z,48.90
2018-06-19T17:13:06.755Z,48.70
2018-06-19T17:15:34.866Z,48.40
2018-06-19T17:18:02.959Z,48.50
2018-06-19T17:20:31.010Z,48.70
2018-06-19T17:22:59.140Z,49.40
2018-06-19T17:25:27.257Z,49.20
2018-06-19T17:27:55.311Z,48.90
2018-06-19T17:30:23.420Z,48.80
2018-06-19T17:32:51.545Z,48.70
2018-06-19T17:35:19.699Z,48.50
2018-06-19T17:37:47.784Z,48.70
2018-06-19T17:40:15.919Z,48.80
2018-06-19T17:42:44.047Z,49.00
2018-06-19T17:45:12.166Z,49.60
2018-06-19T17:47:40.265Z,49.80
2018-06-19T17:50:08.380Z,49.70
2018-06-19T17:52:36.479Z,49.40
2018-06-19T17:55:04.923Z,49.40
2018-06-19T17:57:33.017Z,49.50
2018-06-19T18:00:01.205Z,49.70
2018-06-19T18:02:29.289Z,50.20
2018-06-19T18:04:57.375Z,50.70
2018-06-19T18:07:25.482Z,51.30
2018-06-19T18:09:53.646Z,51.30
2018-06-19T18:12:21.719Z,51.60
2018-06-19T18:14:50.010Z,51.60
2018-06-19T18:17:18.131Z,51.50
2018-06-19T18:19:46.420Z,51.50
2018-06-19T18:22:14.635Z,51.60
2018-06-19T18:24:42.861Z,51.60
2018-06-19T18:27:10.968Z,51.70
2018-06-19T18:29:39.233Z,52.30
2018-06-19T18:32:07.415Z,51.60
2018-06-19T18:34:35.614Z,51.70
2018-06-19T18:37:03.731Z,51.90
2018-06-19T18:39:31.858Z,52.20
2018-06-19T18:41:59.969Z,52.50
2018-06-19T18:44:28.088Z,52.90
2018-06-19T18:46:56.410Z,53.40
2018-06-19T18:49:24.947Z,53.60
2018-06-19T18:51:53.144Z,53.80
2018-06-19T18:54:21.232Z,54.20
2018-06-19T18:56:49.358Z,54.50
2018-06-19T18:59:17.535Z,54.60
2018-06-19T19:01:46.116Z,54.80
2018-06-19T19:04:14.365Z,54.90
2018-06-19T19:06:42.872Z,55.10
2018-06-19T19:09:11.715Z,55.20
2018-06-19T19:11:39.944Z,55.50
2018-06-19T19:14:08.092Z,55.70
2018-06-19T19:16:41.947Z,55.80
2018-06-19T19:19:12.750Z,56.00
2018-06-19T19:21:41.124Z,56.20
2018-06-19T19:24:09.288Z,56.40
2018-06-19T19:26:42.672Z,56.40
2018-06-19T19:29:16.289Z,56.60
2018-06-19T19:31:44.458Z,56.90
2018-06-19T19:34:12.598Z,57.10
2018-06-19T19:36:46.317Z,57.20
2018-06-19T19:39:19.962Z,57.60
2018-06-19T19:41:48.113Z,58.00
2018-06-19T19:44:16.340Z,58.10
2018-06-19T19:46:49.891Z,58.10
2018-06-19T19:49:18.068Z,58.50
2018-06-19T19:51:46.310Z,58.70
2018-06-19T19:54:14.450Z,59.10
2018-06-19T19:56:47.917Z,59.30
2018-06-19T19:59:16.006Z,59.50
2018-06-19T20:01:44.152Z,59.70
2018-06-19T20:04:12.326Z,60.00
2018-06-19T20:06:40.515Z,60.00
2018-06-19T20:09:09.396Z,60.20
2018-06-19T20:11:37.520Z,60.30
2018-06-19T20:14:06.063Z,60.40
2018-06-19T20:16:34.166Z,60.60
2018-06-19T20:19:02.302Z,60.90
2018-06-19T20:21:30.349Z,61.00
2018-06-19T20:23:58.491Z,61.10
2018-06-19T20:26:26.598Z,61.40
2018-06-19T20:28:54.706Z,61.70
2018-06-19T20:31:22.962Z,61.60
2018-06-19T20:33:51.075Z,61.80
2018-06-19T20:36:19.180Z,61.70
2018-06-19T20:38:47.273Z,61.80
2018-06-19T20:41:15.362Z,61.90
2018-06-19T20:43:43.625Z,62.00
2018-06-19T20:46:11.807Z,62.10
2018-06-19T20:48:40.044Z,62.20
2018-06-19T20:51:08.349Z,62.30
2018-06-19T20:53:43.023Z,62.40
2018-06-19T20:56:11.211Z,62.40
2018-06-19T20:58:39.333Z,62.50
2018-06-19T21:01:07.471Z,62.70
2018-06-19T21:03:35.559Z,62.80
2018-06-19T21:06:03.782Z,63.10
2018-06-19T21:08:35.990Z,63.30
2018-06-19T21:11:04.431Z,63.50
2018-06-19T21:13:32.540Z,63.70
2018-06-19T21:16:00.675Z,63.90
2018-06-19T21:18:28.771Z,64.30
2018-06-19T21:20:56.856Z,64.40
2018-06-19T21:23:25.054Z,64.60
2018-06-19T21:25:53.306Z,64.90
2018-06-19T21:28:21.380Z,64.80
2018-06-19T21:30:49.637Z,65.00
2018-06-19T21:33:17.894Z,65.20
2018-06-19T21:35:46.171Z,65.10
2018-06-19T21:38:14.319Z,65.10
2018-06-19T21:40:42.580Z,65.20
2018-06-19T21:43:10.721Z,65.50
2018-06-19T21:45:38.847Z,65.50
2018-06-19T21:48:06.954Z,65.90
2018-06-19T21:50:35.125Z,66.10
2018-06-19T21:53:03.186Z,66.30
2018-06-19T21:55:31.262Z,66.10
2018-06-19T21:57:59.375Z,66.30
2018-06-19T22:00:27.459Z,66.40
2018-06-19T22:02:55.539Z,66.80
2018-06-19T22:05:23.628Z,67.00
2018-06-19T22:07:52.069Z,67.00
2018-06-19T22:10:20.180Z,67.20
2018-06-19T22:12:48.243Z,67.70
2018-06-19T22:15:16.341Z,67.90
2018-06-19T22:17:44.430Z,68.20
2018-06-19T22:20:12.562Z,68.40
2018-06-19T22:22:40.660Z,68.60
2018-06-19T22:25:08.739Z,68.80
2018-06-19T22:27:36.872Z,68.80
2018-06-19T22:30:04.957Z,69.70
2018-06-19T22:32:33.068Z,69.70
2018-06-19T22:37:29.090Z,69.70
2018-06-19T22:39:57.219Z,69.90
2018-06-19T22:42:25.330Z,70.10
2018-06-19T22:44:53.467Z,69.80
2018-06-19T22:47:21.575Z,70.10
2018-06-19T22:49:49.651Z,69.80
2018-06-19T22:52:17.796Z,69.70
2018-06-19T22:54:45.925Z,69.90
2018-06-19T22:57:14.074Z,69.60
2018-06-19T22:59:42.166Z,69.80
2018-06-19T23:02:10.243Z,69.50
2018-06-19T23:04:38.447Z,70.00
2018-06-19T23:07:06.557Z,70.30
2018-06-19T23:09:34.613Z,70.50
2018-06-19T23:12:02.748Z,70.80
2018-06-19T23:14:30.810Z,70.70
2018-06-19T23:16:58.883Z,70.80
2018-06-19T23:19:26.980Z,70.70
2018-06-19T23:21:55.117Z,70.50
2018-06-19T23:24:23.180Z,70.80
2018-06-19T23:26:51.333Z,71.20
2018-06-19T23:29:19.431Z,71.60
2018-06-19T23:31:47.506Z,71.80
2018-06-19T23:34:15.607Z,72.30
2018-06-19T23:36:43.709Z,72.50
2018-06-19T23:39:11.800Z,72.10
2018-06-19T23:41:39.924Z,72.10
2018-06-19T23:44:08.198Z,72.20
2018-06-19T23:46:36.577Z,72.80
2018-06-19T23:49:04.669Z,72.40
2018-06-19T23:51:32.768Z,72.70
2018-06-19T23:54:00.825Z,72.80
2018-06-19T23:56:28.876Z,72.80
2018-06-19T23:58:56.989Z,72.70
